sensor_id;sensor_type;location;lat;lon;timestamp;temperature;humidity
6375;DHT22;35400;45.472;-122.822;2023-03-19T00:00:42;19.80;60.30
6375;DHT22;35400;45.472;-122.822;2023-03-19T00:03:09;19.80;60.70
6375;DHT22;35400;45.472;-122.822;2023-03-19T00:05:36;19.70;60.70
6375;DHT22;35400;45.472;-122.822;2023-03-19T00:08:10;19.70;60.60
6375;DHT22;35400;45.472;-122.822;2023-03-19T00:10:38;19.70;60.90
6375;DHT22;35400;45.472;-122.822;2023-03-19T00:13:05;19.70;60.20
6375;DHT22;35400;45.472;-122.822;2023-03-19T00:15:32;19.70;60.60
6375;DHT22;35400;45.472;-122.822;2023-03-19T00:17:59;19.70;60.00
6375;DHT22;35400;45.472;-122.822;2023-03-19T00:20:26;19.70;60.00
6375;DHT22;35400;45.472;-122.822;2023-03-19T00:22:53;19.60;58.50
6375;DHT22;35400;45.472;-122.822;2023-03-19T00:25:20;19.60;58.30
6375;DHT22;35400;45.472;-122.822;2023-03-19T00:27:47;19.60;58.80
6375;DHT22;35400;45.472;-122.822;2023-03-19T00:30:14;19.60;59.30
6375;DHT22;35400;45.472;-122.822;2023-03-19T00:32:41;19.50;59.20
6375;DHT22;35400;45.472;-122.822;2023-03-19T00:35:09;19.50;59.20
6375;DHT22;35400;45.472;-122.822;2023-03-19T00:37:39;19.40;58.80
6375;DHT22;35400;45.472;-122.822;2023-03-19T00:40:08;19.40;59.50
6375;DHT22;35400;45.472;-122.822;2023-03-19T00:42:35;19.40;59.80
6375;DHT22;35400;45.472;-122.822;2023-03-19T00:45:03;19.30;59.20
6375;DHT22;35400;45.472;-122.822;2023-03-19T00:47:32;19.30;59.40
6375;DHT22;35400;45.472;-122.822;2023-03-19T00:49:59;19.20;59.50
6375;DHT22;35400;45.472;-122.822;2023-03-19T00:52:26;19.20;59.60
6375;DHT22;35400;45.472;-122.822;2023-03-19T00:54:53;19.20;59.30
6375;DHT22;35400;45.472;-122.822;2023-03-19T00:57:20;19.10;59.50
6375;DHT22;35400;45.472;-122.822;2023-03-19T00:59:49;19.10;59.70
6375;DHT22;35400;45.472;-122.822;2023-03-19T01:02:16;19.00;60.00
6375;DHT22;35400;45.472;-122.822;2023-03-19T01:04:46;19.00;60.40
6375;DHT22;35400;45.472;-122.822;2023-03-19T01:07:13;18.90;60.40
6375;DHT22;35400;45.472;-122.822;2023-03-19T01:09:41;18.80;60.50
6375;DHT22;35400;45.472;-122.822;2023-03-19T01:12:08;18.80;60.40
6375;DHT22;35400;45.472;-122.822;2023-03-19T01:14:35;18.70;60.60
6375;DHT22;35400;45.472;-122.822;2023-03-19T01:17:02;18.70;61.60
6375;DHT22;35400;45.472;-122.822;2023-03-19T01:19:29;18.60;61.10
6375;DHT22;35400;45.472;-122.822;2023-03-19T01:21:56;18.50;61.20
6375;DHT22;35400;45.472;-122.822;2023-03-19T01:24:23;18.40;61.10
6375;DHT22;35400;45.472;-122.822;2023-03-19T01:26:53;18.30;61.30
6375;DHT22;35400;45.472;-122.822;2023-03-19T01:29:28;18.30;61.50
6375;DHT22;35400;45.472;-122.822;2023-03-19T01:31:58;18.20;61.40
6375;DHT22;35400;45.472;-122.822;2023-03-19T01:34:36;18.10;61.70
6375;DHT22;35400;45.472;-122.822;2023-03-19T01:37:12;18.00;62.20
6375;DHT22;35400;45.472;-122.822;2023-03-19T01:39:42;17.90;62.50
6375;DHT22;35400;45.472;-122.822;2023-03-19T01:42:14;17.90;62.80
6375;DHT22;35400;45.472;-122.822;2023-03-19T01:44:56;17.80;63.80
6375;DHT22;35400;45.472;-122.822;2023-03-19T01:47:42;17.70;63.20
6375;DHT22;35400;45.472;-122.822;2023-03-19T01:53:26;17.60;64.00
6375;DHT22;35400;45.472;-122.822;2023-03-19T01:56:16;17.50;64.40
6375;DHT22;35400;45.472;-122.822;2023-03-19T01:59:20;17.40;65.00
6375;DHT22;35400;45.472;-122.822;2023-03-19T02:02:27;17.30;65.80
6375;DHT22;35400;45.472;-122.822;2023-03-19T02:05:12;17.10;66.40
6375;DHT22;35400;45.472;-122.822;2023-03-19T02:07:44;17.00;66.80
6375;DHT22;35400;45.472;-122.822;2023-03-19T02:10:14;16.90;67.10
6375;DHT22;35400;45.472;-122.822;2023-03-19T02:12:42;16.80;68.00
6375;DHT22;35400;45.472;-122.822;2023-03-19T02:15:09;16.60;68.40
6375;DHT22;35400;45.472;-122.822;2023-03-19T02:17:40;16.60;69.10
6375;DHT22;35400;45.472;-122.822;2023-03-19T02:20:12;16.50;69.50
6375;DHT22;35400;45.472;-122.822;2023-03-19T02:22:57;16.40;70.00
6375;DHT22;35400;45.472;-122.822;2023-03-19T02:26:22;16.20;70.40
6375;DHT22;35400;45.472;-122.822;2023-03-19T02:28:24;16.10;70.80
6375;DHT22;35400;45.472;-122.822;2023-03-19T02:30:53;16.00;71.10
6375;DHT22;35400;45.472;-122.822;2023-03-19T02:33:20;15.90;71.50
6375;DHT22;35400;45.472;-122.822;2023-03-19T02:35:49;15.80;72.10
6375;DHT22;35400;45.472;-122.822;2023-03-19T02:38:18;15.70;72.60
6375;DHT22;35400;45.472;-122.822;2023-03-19T02:41:02;15.60;73.10
6375;DHT22;35400;45.472;-122.822;2023-03-19T02:43:31;15.50;73.50
6375;DHT22;35400;45.472;-122.822;2023-03-19T02:46:01;15.40;73.90
6375;DHT22;35400;45.472;-122.822;2023-03-19T02:48:28;15.30;74.20
6375;DHT22;35400;45.472;-122.822;2023-03-19T02:50:55;15.20;74.60
6375;DHT22;35400;45.472;-122.822;2023-03-19T02:53:22;15.10;74.80
6375;DHT22;35400;45.472;-122.822;2023-03-19T02:55:51;15.00;75.10
6375;DHT22;35400;45.472;-122.822;2023-03-19T02:58:18;14.90;75.20
6375;DHT22;35400;45.472;-122.822;2023-03-19T03:00:45;14.80;75.80
6375;DHT22;35400;45.472;-122.822;2023-03-19T03:03:13;14.60;76.20
6375;DHT22;35400;45.472;-122.822;2023-03-19T03:05:40;14.50;76.60
6375;DHT22;35400;45.472;-122.822;2023-03-19T03:08:07;14.50;77.00
6375;DHT22;35400;45.472;-122.822;2023-03-19T03:10:34;14.30;77.20
6375;DHT22;35400;45.472;-122.822;2023-03-19T03:13:03;14.30;77.90
6375;DHT22;35400;45.472;-122.822;2023-03-19T03:15:30;14.20;78.40
6375;DHT22;35400;45.472;-122.822;2023-03-19T03:17:57;14.10;78.60
6375;DHT22;35400;45.472;-122.822;2023-03-19T03:20:25;14.00;78.80
6375;DHT22;35400;45.472;-122.822;2023-03-19T03:22:52;13.90;79.30
6375;DHT22;35400;45.472;-122.822;2023-03-19T03:25:19;13.80;79.80
6375;DHT22;35400;45.472;-122.822;2023-03-19T03:27:46;13.70;80.00
6375;DHT22;35400;45.472;-122.822;2023-03-19T03:30:14;13.70;80.60
6375;DHT22;35400;45.472;-122.822;2023-03-19T03:32:42;13.60;80.80
6375;DHT22;35400;45.472;-122.822;2023-03-19T03:35:10;13.50;81.10
6375;DHT22;35400;45.472;-122.822;2023-03-19T03:37:37;13.40;81.40
6375;DHT22;35400;45.472;-122.822;2023-03-19T03:40:06;13.40;81.80
6375;DHT22;35400;45.472;-122.822;2023-03-19T03:42:35;13.30;82.00
6375;DHT22;35400;45.472;-122.822;2023-03-19T03:45:04;13.30;83.10
6375;DHT22;35400;45.472;-122.822;2023-03-19T03:47:31;13.20;82.90
6375;DHT22;35400;45.472;-122.822;2023-03-19T03:49:58;13.10;83.20
6375;DHT22;35400;45.472;-122.822;2023-03-19T03:52:26;13.00;83.50
6375;DHT22;35400;45.472;-122.822;2023-03-19T03:54:57;13.00;83.70
6375;DHT22;35400;45.472;-122.822;2023-03-19T03:57:24;13.00;84.00
6375;DHT22;35400;45.472;-122.822;2023-03-19T03:59:52;12.90;84.30
6375;DHT22;35400;45.472;-122.822;2023-03-19T04:02:19;12.90;84.60
6375;DHT22;35400;45.472;-122.822;2023-03-19T04:04:47;12.80;84.90
6375;DHT22;35400;45.472;-122.822;2023-03-19T04:07:14;12.80;85.30
6375;DHT22;35400;45.472;-122.822;2023-03-19T04:09:47;12.70;85.40
6375;DHT22;35400;45.472;-122.822;2023-03-19T04:12:14;12.70;85.70
6375;DHT22;35400;45.472;-122.822;2023-03-19T04:14:42;12.60;85.90
6375;DHT22;35400;45.472;-122.822;2023-03-19T04:17:09;12.60;86.50
6375;DHT22;35400;45.472;-122.822;2023-03-19T04:19:37;12.50;87.10
6375;DHT22;35400;45.472;-122.822;2023-03-19T04:22:04;12.50;87.20
6375;DHT22;35400;45.472;-122.822;2023-03-19T04:24:34;12.40;87.20
6375;DHT22;35400;45.472;-122.822;2023-03-19T04:27:02;12.40;87.30
6375;DHT22;35400;45.472;-122.822;2023-03-19T04:29:29;12.30;87.50
6375;DHT22;35400;45.472;-122.822;2023-03-19T04:31:56;12.30;87.80
6375;DHT22;35400;45.472;-122.822;2023-03-19T04:34:24;12.30;88.40
6375;DHT22;35400;45.472;-122.822;2023-03-19T04:36:51;12.20;88.90
6375;DHT22;35400;45.472;-122.822;2023-03-19T04:39:18;12.20;89.10
6375;DHT22;35400;45.472;-122.822;2023-03-19T04:41:45;12.20;89.30
6375;DHT22;35400;45.472;-122.822;2023-03-19T04:44:38;12.10;89.50
6375;DHT22;35400;45.472;-122.822;2023-03-19T04:47:06;12.10;89.90
6375;DHT22;35400;45.472;-122.822;2023-03-19T04:49:46;12.10;90.10
6375;DHT22;35400;45.472;-122.822;2023-03-19T04:52:15;12.00;90.20
6375;DHT22;35400;45.472;-122.822;2023-03-19T04:54:43;12.00;90.30
6375;DHT22;35400;45.472;-122.822;2023-03-19T04:57:10;12.00;90.50
6375;DHT22;35400;45.472;-122.822;2023-03-19T04:59:40;11.90;90.70
6375;DHT22;35400;45.472;-122.822;2023-03-19T05:02:08;11.90;90.90
6375;DHT22;35400;45.472;-122.822;2023-03-19T05:04:37;11.90;91.00
6375;DHT22;35400;45.472;-122.822;2023-03-19T05:07:08;11.90;91.10
6375;DHT22;35400;45.472;-122.822;2023-03-19T05:09:36;11.80;91.20
6375;DHT22;35400;45.472;-122.822;2023-03-19T05:12:03;11.80;91.20
6375;DHT22;35400;45.472;-122.822;2023-03-19T05:14:36;11.80;91.40
6375;DHT22;35400;45.472;-122.822;2023-03-19T05:17:08;11.80;91.50
6375;DHT22;35400;45.472;-122.822;2023-03-19T05:19:52;11.80;91.70
6375;DHT22;35400;45.472;-122.822;2023-03-19T05:22:20;11.70;91.70
6375;DHT22;35400;45.472;-122.822;2023-03-19T05:24:51;11.70;91.80
6375;DHT22;35400;45.472;-122.822;2023-03-19T05:27:20;11.70;92.00
6375;DHT22;35400;45.472;-122.822;2023-03-19T05:30:08;11.60;92.10
6375;DHT22;35400;45.472;-122.822;2023-03-19T05:32:38;11.60;92.20
6375;DHT22;35400;45.472;-122.822;2023-03-19T05:35:10;11.60;92.40
6375;DHT22;35400;45.472;-122.822;2023-03-19T05:37:37;11.60;92.50
6375;DHT22;35400;45.472;-122.822;2023-03-19T05:40:05;11.60;92.70
6375;DHT22;35400;45.472;-122.822;2023-03-19T05:42:34;11.50;92.80
6375;DHT22;35400;45.472;-122.822;2023-03-19T05:45:01;11.50;93.00
6375;DHT22;35400;45.472;-122.822;2023-03-19T05:47:39;11.50;93.10
6375;DHT22;35400;45.472;-122.822;2023-03-19T05:50:07;11.40;93.20
6375;DHT22;35400;45.472;-122.822;2023-03-19T05:52:35;11.40;93.30
6375;DHT22;35400;45.472;-122.822;2023-03-19T05:55:03;11.40;93.50
6375;DHT22;35400;45.472;-122.822;2023-03-19T05:57:38;11.40;93.70
6375;DHT22;35400;45.472;-122.822;2023-03-19T06:00:08;11.30;94.10
6375;DHT22;35400;45.472;-122.822;2023-03-19T06:02:36;11.30;93.90
6375;DHT22;35400;45.472;-122.822;2023-03-19T06:05:23;11.30;94.10
6375;DHT22;35400;45.472;-122.822;2023-03-19T06:07:53;11.30;94.20
6375;DHT22;35400;45.472;-122.822;2023-03-19T06:10:32;11.20;94.20
6375;DHT22;35400;45.472;-122.822;2023-03-19T06:13:02;11.20;94.20
6375;DHT22;35400;45.472;-122.822;2023-03-19T06:15:39;11.20;94.30
6375;DHT22;35400;45.472;-122.822;2023-03-19T06:18:31;11.20;94.30
6375;DHT22;35400;45.472;-122.822;2023-03-19T06:21:03;11.20;94.20
6375;DHT22;35400;45.472;-122.822;2023-03-19T06:23:31;11.10;94.10
6375;DHT22;35400;45.472;-122.822;2023-03-19T06:25:59;11.10;94.00
6375;DHT22;35400;45.472;-122.822;2023-03-19T06:28:30;11.20;93.70
6375;DHT22;35400;45.472;-122.822;2023-03-19T06:30:57;11.20;93.50
6375;DHT22;35400;45.472;-122.822;2023-03-19T06:33:44;11.20;93.40
6375;DHT22;35400;45.472;-122.822;2023-03-19T06:36:11;11.20;93.30
6375;DHT22;35400;45.472;-122.822;2023-03-19T06:38:38;11.20;93.10
6375;DHT22;35400;45.472;-122.822;2023-03-19T06:41:06;11.20;93.00
6375;DHT22;35400;45.472;-122.822;2023-03-19T06:43:33;11.20;92.80
6375;DHT22;35400;45.472;-122.822;2023-03-19T06:46:05;11.20;92.50
6375;DHT22;35400;45.472;-122.822;2023-03-19T06:48:33;11.20;92.20
6375;DHT22;35400;45.472;-122.822;2023-03-19T06:51:00;11.20;92.10
6375;DHT22;35400;45.472;-122.822;2023-03-19T06:53:27;11.30;92.10
6375;DHT22;35400;45.472;-122.822;2023-03-19T06:55:54;11.30;91.80
6375;DHT22;35400;45.472;-122.822;2023-03-19T06:58:22;11.40;91.40
6375;DHT22;35400;45.472;-122.822;2023-03-19T07:00:49;11.40;91.20
6375;DHT22;35400;45.472;-122.822;2023-03-19T07:03:16;11.40;90.10
6375;DHT22;35400;45.472;-122.822;2023-03-19T07:05:43;11.50;90.10
6375;DHT22;35400;45.472;-122.822;2023-03-19T07:08:10;11.50;90.00
6375;DHT22;35400;45.472;-122.822;2023-03-19T07:10:38;11.60;89.70
6375;DHT22;35400;45.472;-122.822;2023-03-19T07:13:05;11.60;89.30
6375;DHT22;35400;45.472;-122.822;2023-03-19T07:15:32;11.60;89.20
6375;DHT22;35400;45.472;-122.822;2023-03-19T07:17:59;11.70;88.80
6375;DHT22;35400;45.472;-122.822;2023-03-19T07:20:26;11.70;88.60
6375;DHT22;35400;45.472;-122.822;2023-03-19T07:22:54;11.70;88.40
6375;DHT22;35400;45.472;-122.822;2023-03-19T07:25:21;11.70;88.40
6375;DHT22;35400;45.472;-122.822;2023-03-19T07:27:48;11.80;88.40
6375;DHT22;35400;45.472;-122.822;2023-03-19T07:30:15;11.80;87.70
6375;DHT22;35400;45.472;-122.822;2023-03-19T07:32:42;11.80;87.60
6375;DHT22;35400;45.472;-122.822;2023-03-19T07:35:09;11.80;87.70
6375;DHT22;35400;45.472;-122.822;2023-03-19T07:37:36;11.80;87.90
6375;DHT22;35400;45.472;-122.822;2023-03-19T07:40:04;11.80;88.20
6375;DHT22;35400;45.472;-122.822;2023-03-19T07:42:31;11.70;88.40
6375;DHT22;35400;45.472;-122.822;2023-03-19T07:44:58;11.70;88.80
6375;DHT22;35400;45.472;-122.822;2023-03-19T07:47:28;11.70;89.50
6375;DHT22;35400;45.472;-122.822;2023-03-19T07:49:55;11.70;90.00
6375;DHT22;35400;45.472;-122.822;2023-03-19T07:52:23;11.60;90.30
6375;DHT22;35400;45.472;-122.822;2023-03-19T07:54:50;11.60;90.80
6375;DHT22;35400;45.472;-122.822;2023-03-19T07:57:20;11.50;90.70
6375;DHT22;35400;45.472;-122.822;2023-03-19T07:59:48;11.50;90.90
6375;DHT22;35400;45.472;-122.822;2023-03-19T08:02:14;11.50;91.10
6375;DHT22;35400;45.472;-122.822;2023-03-19T08:04:42;11.40;91.40
6375;DHT22;35400;45.472;-122.822;2023-03-19T08:07:09;11.30;91.70
6375;DHT22;35400;45.472;-122.822;2023-03-19T08:09:38;11.30;92.50
6375;DHT22;35400;45.472;-122.822;2023-03-19T08:12:06;11.30;93.00
6375;DHT22;35400;45.472;-122.822;2023-03-19T08:14:34;11.20;93.10
6375;DHT22;35400;45.472;-122.822;2023-03-19T08:17:01;11.20;93.70
6375;DHT22;35400;45.472;-122.822;2023-03-19T08:19:28;11.10;94.10
6375;DHT22;35400;45.472;-122.822;2023-03-19T08:21:55;11.10;94.40
6375;DHT22;35400;45.472;-122.822;2023-03-19T08:24:22;11.10;94.60
6375;DHT22;35400;45.472;-122.822;2023-03-19T08:26:49;11.00;94.60
6375;DHT22;35400;45.472;-122.822;2023-03-19T08:29:17;11.00;94.90
6375;DHT22;35400;45.472;-122.822;2023-03-19T08:31:43;10.90;95.00
6375;DHT22;35400;45.472;-122.822;2023-03-19T08:34:11;10.90;95.30
6375;DHT22;35400;45.472;-122.822;2023-03-19T08:36:37;10.80;95.50
6375;DHT22;35400;45.472;-122.822;2023-03-19T08:39:04;10.80;95.90
6375;DHT22;35400;45.472;-122.822;2023-03-19T08:41:31;10.80;96.10
6375;DHT22;35400;45.472;-122.822;2023-03-19T08:43:59;10.80;96.50
6375;DHT22;35400;45.472;-122.822;2023-03-19T08:46:26;10.70;96.70
6375;DHT22;35400;45.472;-122.822;2023-03-19T08:48:54;10.70;96.80
6375;DHT22;35400;45.472;-122.822;2023-03-19T08:51:21;10.60;96.90
6375;DHT22;35400;45.472;-122.822;2023-03-19T08:53:51;10.60;97.20
6375;DHT22;35400;45.472;-122.822;2023-03-19T08:56:18;10.60;97.30
6375;DHT22;35400;45.472;-122.822;2023-03-19T08:58:45;10.50;97.40
6375;DHT22;35400;45.472;-122.822;2023-03-19T09:01:13;10.50;97.60
6375;DHT22;35400;45.472;-122.822;2023-03-19T09:03:42;10.40;97.80
6375;DHT22;35400;45.472;-122.822;2023-03-19T09:06:11;10.40;98.00
6375;DHT22;35400;45.472;-122.822;2023-03-19T09:08:40;10.40;98.20
6375;DHT22;35400;45.472;-122.822;2023-03-19T09:11:07;10.30;98.30
6375;DHT22;35400;45.472;-122.822;2023-03-19T09:13:36;10.30;98.40
6375;DHT22;35400;45.472;-122.822;2023-03-19T09:16:03;10.30;98.60
6375;DHT22;35400;45.472;-122.822;2023-03-19T09:18:31;10.30;98.70
6375;DHT22;35400;45.472;-122.822;2023-03-19T09:20:59;10.20;98.90
6375;DHT22;35400;45.472;-122.822;2023-03-19T09:23:27;10.20;99.00
6375;DHT22;35400;45.472;-122.822;2023-03-19T09:25:54;10.20;99.20
6375;DHT22;35400;45.472;-122.822;2023-03-19T09:28:23;10.10;99.20
6375;DHT22;35400;45.472;-122.822;2023-03-19T09:30:50;10.10;99.40
6375;DHT22;35400;45.472;-122.822;2023-03-19T09:33:18;10.10;99.50
6375;DHT22;35400;45.472;-122.822;2023-03-19T09:35:50;10.00;99.70
6375;DHT22;35400;45.472;-122.822;2023-03-19T09:38:19;10.00;99.80
6375;DHT22;35400;45.472;-122.822;2023-03-19T09:40:52;9.90;99.90
6375;DHT22;35400;45.472;-122.822;2023-03-19T09:43:50;9.90;99.90
6375;DHT22;35400;45.472;-122.822;2023-03-19T09:46:42;9.80;99.90
6375;DHT22;35400;45.472;-122.822;2023-03-19T09:49:33;9.80;99.90
6375;DHT22;35400;45.472;-122.822;2023-03-19T09:57:56;9.60;99.90
6375;DHT22;35400;45.472;-122.822;2023-03-19T10:00:34;9.60;99.90
6375;DHT22;35400;45.472;-122.822;2023-03-19T10:16:27;9.20;99.90
6375;DHT22;35400;45.472;-122.822;2023-03-19T10:19:00;9.20;99.90
6375;DHT22;35400;45.472;-122.822;2023-03-19T10:21:44;9.20;99.90
6375;DHT22;35400;45.472;-122.822;2023-03-19T10:24:28;9.20;99.90
6375;DHT22;35400;45.472;-122.822;2023-03-19T10:27:20;9.10;99.90
6375;DHT22;35400;45.472;-122.822;2023-03-19T10:29:47;9.10;99.90
6375;DHT22;35400;45.472;-122.822;2023-03-19T10:35:06;9.00;99.90
6375;DHT22;35400;45.472;-122.822;2023-03-19T10:37:34;8.90;99.90
6375;DHT22;35400;45.472;-122.822;2023-03-19T10:40:02;8.90;99.90
6375;DHT22;35400;45.472;-122.822;2023-03-19T10:45:38;8.80;99.90
6375;DHT22;35400;45.472;-122.822;2023-03-19T10:48:05;8.70;99.90
6375;DHT22;35400;45.472;-122.822;2023-03-19T10:55:54;8.50;99.90
6375;DHT22;35400;45.472;-122.822;2023-03-19T10:58:27;8.50;99.90
6375;DHT22;35400;45.472;-122.822;2023-03-19T11:01:05;8.50;99.90
6375;DHT22;35400;45.472;-122.822;2023-03-19T11:03:36;8.40;99.90
6375;DHT22;35400;45.472;-122.822;2023-03-19T11:06:18;8.40;99.90
6375;DHT22;35400;45.472;-122.822;2023-03-19T11:11:45;8.30;99.90
6375;DHT22;35400;45.472;-122.822;2023-03-19T11:14:37;8.30;99.90
6375;DHT22;35400;45.472;-122.822;2023-03-19T11:22:32;8.10;99.90
6375;DHT22;35400;45.472;-122.822;2023-03-19T11:25:06;8.10;99.90
6375;DHT22;35400;45.472;-122.822;2023-03-19T11:27:39;8.10;99.90
6375;DHT22;35400;45.472;-122.822;2023-03-19T11:30:15;8.00;99.90
6375;DHT22;35400;45.472;-122.822;2023-03-19T11:36:16;8.00;99.90
6375;DHT22;35400;45.472;-122.822;2023-03-19T11:39:37;8.00;99.90
6375;DHT22;35400;45.472;-122.822;2023-03-19T11:41:47;8.00;99.90
6375;DHT22;35400;45.472;-122.822;2023-03-19T11:47:11;7.90;99.90
6375;DHT22;35400;45.472;-122.822;2023-03-19T11:50:24;7.90;99.90
6375;DHT22;35400;45.472;-122.822;2023-03-19T11:56:04;7.80;99.90
6375;DHT22;35400;45.472;-122.822;2023-03-19T12:10:02;7.80;99.90
6375;DHT22;35400;45.472;-122.822;2023-03-19T12:15:30;7.80;99.90
6375;DHT22;35400;45.472;-122.822;2023-03-19T12:21:15;7.80;99.90
6375;DHT22;35400;45.472;-122.822;2023-03-19T12:27:07;7.70;99.90
6375;DHT22;35400;45.472;-122.822;2023-03-19T12:35:40;7.70;99.90
6375;DHT22;35400;45.472;-122.822;2023-03-19T12:38:42;7.70;99.90
6375;DHT22;35400;45.472;-122.822;2023-03-19T12:41:18;7.70;99.90
6375;DHT22;35400;45.472;-122.822;2023-03-19T12:43:54;7.70;99.90
6375;DHT22;35400;45.472;-122.822;2023-03-19T12:46:25;7.70;99.90
6375;DHT22;35400;45.472;-122.822;2023-03-19T12:51:51;7.60;99.90
6375;DHT22;35400;45.472;-122.822;2023-03-19T12:54:24;7.60;99.90
6375;DHT22;35400;45.472;-122.822;2023-03-19T12:56:59;7.60;99.90
6375;DHT22;35400;45.472;-122.822;2023-03-19T12:59:42;7.60;99.90
6375;DHT22;35400;45.472;-122.822;2023-03-19T13:02:29;7.60;99.90
6375;DHT22;35400;45.472;-122.822;2023-03-19T13:05:20;7.50;99.90
6375;DHT22;35400;45.472;-122.822;2023-03-19T13:10:33;7.50;99.90
6375;DHT22;35400;45.472;-122.822;2023-03-19T13:13:12;7.50;99.90
6375;DHT22;35400;45.472;-122.822;2023-03-19T13:15:47;7.50;99.90
6375;DHT22;35400;45.472;-122.822;2023-03-19T13:18:42;7.40;99.90
6375;DHT22;35400;45.472;-122.822;2023-03-19T13:23:44;7.40;99.90
6375;DHT22;35400;45.472;-122.822;2023-03-19T13:26:13;7.40;99.90
6375;DHT22;35400;45.472;-122.822;2023-03-19T13:31:33;7.30;99.90
6375;DHT22;35400;45.472;-122.822;2023-03-19T13:34:17;7.30;99.90
6375;DHT22;35400;45.472;-122.822;2023-03-19T13:36:52;7.30;99.90
6375;DHT22;35400;45.472;-122.822;2023-03-19T13:39:27;7.30;99.90
6375;DHT22;35400;45.472;-122.822;2023-03-19T13:45:26;7.30;99.90
6375;DHT22;35400;45.472;-122.822;2023-03-19T13:47:52;7.30;99.90
6375;DHT22;35400;45.472;-122.822;2023-03-19T13:50:22;7.20;99.90
6375;DHT22;35400;45.472;-122.822;2023-03-19T13:52:53;7.20;99.90
6375;DHT22;35400;45.472;-122.822;2023-03-19T14:01:04;7.20;99.90
6375;DHT22;35400;45.472;-122.822;2023-03-19T14:03:35;7.20;99.90
6375;DHT22;35400;45.472;-122.822;2023-03-19T14:06:05;7.20;99.90
6375;DHT22;35400;45.472;-122.822;2023-03-19T14:08:52;7.20;99.90
6375;DHT22;35400;45.472;-122.822;2023-03-19T14:11:23;7.20;99.90
6375;DHT22;35400;45.472;-122.822;2023-03-19T14:13:52;7.20;99.90
6375;DHT22;35400;45.472;-122.822;2023-03-19T14:16:28;7.20;99.90
6375;DHT22;35400;45.472;-122.822;2023-03-19T14:18:58;7.20;99.90
6375;DHT22;35400;45.472;-122.822;2023-03-19T14:22:01;7.20;99.90
6375;DHT22;35400;45.472;-122.822;2023-03-19T14:27:02;7.20;99.90
6375;DHT22;35400;45.472;-122.822;2023-03-19T14:29:32;7.20;99.90
6375;DHT22;35400;45.472;-122.822;2023-03-19T14:32:06;7.20;99.90
6375;DHT22;35400;45.472;-122.822;2023-03-19T14:34:39;7.20;99.90
6375;DHT22;35400;45.472;-122.822;2023-03-19T14:37:36;7.20;99.90
6375;DHT22;35400;45.472;-122.822;2023-03-19T14:40:13;7.20;99.90
6375;DHT22;35400;45.472;-122.822;2023-03-19T14:43:02;7.20;99.90
6375;DHT22;35400;45.472;-122.822;2023-03-19T14:45:39;7.20;99.90
6375;DHT22;35400;45.472;-122.822;2023-03-19T14:48:23;7.20;99.90
6375;DHT22;35400;45.472;-122.822;2023-03-19T14:53:51;7.30;99.90
6375;DHT22;35400;45.472;-122.822;2023-03-19T14:56:34;7.30;99.90
6375;DHT22;35400;45.472;-122.822;2023-03-19T14:59:02;7.30;99.90
6375;DHT22;35400;45.472;-122.822;2023-03-19T15:01:43;7.40;99.90
6375;DHT22;35400;45.472;-122.822;2023-03-19T15:04:14;7.40;99.90
6375;DHT22;35400;45.472;-122.822;2023-03-19T15:06:54;7.40;99.90
6375;DHT22;35400;45.472;-122.822;2023-03-19T15:09:28;7.40;99.90
6375;DHT22;35400;45.472;-122.822;2023-03-19T15:12:10;7.50;99.90
6375;DHT22;35400;45.472;-122.822;2023-03-19T15:17:35;7.60;99.90
6375;DHT22;35400;45.472;-122.822;2023-03-19T15:20:14;7.70;99.90
6375;DHT22;35400;45.472;-122.822;2023-03-19T15:22:43;7.70;99.90
6375;DHT22;35400;45.472;-122.822;2023-03-19T15:25:12;7.70;99.90
6375;DHT22;35400;45.472;-122.822;2023-03-19T15:27:41;7.80;99.90
6375;DHT22;35400;45.472;-122.822;2023-03-19T15:30:21;7.90;99.90
6375;DHT22;35400;45.472;-122.822;2023-03-19T15:32:49;7.90;99.90
6375;DHT22;35400;45.472;-122.822;2023-03-19T15:35:23;8.00;99.90
6375;DHT22;35400;45.472;-122.822;2023-03-19T15:37:56;8.10;99.90
6375;DHT22;35400;45.472;-122.822;2023-03-19T15:40:27;8.20;99.90
6375;DHT22;35400;45.472;-122.822;2023-03-19T15:43:00;8.30;99.90
6375;DHT22;35400;45.472;-122.822;2023-03-19T15:45:29;8.40;99.90
6375;DHT22;35400;45.472;-122.822;2023-03-19T15:48:07;8.50;99.90
6375;DHT22;35400;45.472;-122.822;2023-03-19T15:50:36;8.70;99.90
6375;DHT22;35400;45.472;-122.822;2023-03-19T15:53:17;8.80;99.90
6375;DHT22;35400;45.472;-122.822;2023-03-19T15:55:51;9.00;99.90
6375;DHT22;35400;45.472;-122.822;2023-03-19T15:58:24;9.10;99.90
6375;DHT22;35400;45.472;-122.822;2023-03-19T16:00:53;9.30;99.90
6375;DHT22;35400;45.472;-122.822;2023-03-19T16:03:37;9.40;99.90
6375;DHT22;35400;45.472;-122.822;2023-03-19T16:06:28;9.50;99.90
6375;DHT22;35400;45.472;-122.822;2023-03-19T16:08:55;9.60;99.90
6375;DHT22;35400;45.472;-122.822;2023-03-19T16:11:36;9.70;99.90
6375;DHT22;35400;45.472;-122.822;2023-03-19T16:14:23;9.80;99.90
6375;DHT22;35400;45.472;-122.822;2023-03-19T16:16:58;9.90;99.90
6375;DHT22;35400;45.472;-122.822;2023-03-19T16:19:37;10.00;99.90
6375;DHT22;35400;45.472;-122.822;2023-03-19T16:22:17;10.10;99.90
6375;DHT22;35400;45.472;-122.822;2023-03-19T16:24:47;10.10;99.90
6375;DHT22;35400;45.472;-122.822;2023-03-19T16:27:35;10.20;99.90
6375;DHT22;35400;45.472;-122.822;2023-03-19T16:32:43;10.30;99.90
6375;DHT22;35400;45.472;-122.822;2023-03-19T16:35:15;10.30;99.90
6375;DHT22;35400;45.472;-122.822;2023-03-19T16:37:52;10.40;99.90
6375;DHT22;35400;45.472;-122.822;2023-03-19T16:42:51;10.50;99.90
6375;DHT22;35400;45.472;-122.822;2023-03-19T16:45:24;10.60;99.90
6375;DHT22;35400;45.472;-122.822;2023-03-19T16:47:57;10.70;99.90
6375;DHT22;35400;45.472;-122.822;2023-03-19T16:50:33;10.70;99.90
6375;DHT22;35400;45.472;-122.822;2023-03-19T16:53:03;10.80;99.90
6375;DHT22;35400;45.472;-122.822;2023-03-19T16:55:33;10.90;99.90
6375;DHT22;35400;45.472;-122.822;2023-03-19T16:58:26;10.90;99.90
6375;DHT22;35400;45.472;-122.822;2023-03-19T17:00:54;11.00;99.90
6375;DHT22;35400;45.472;-122.822;2023-03-19T17:03:21;11.00;99.90
6375;DHT22;35400;45.472;-122.822;2023-03-19T17:05:48;11.00;99.90
6375;DHT22;35400;45.472;-122.822;2023-03-19T17:08:15;11.10;99.90
6375;DHT22;35400;45.472;-122.822;2023-03-19T17:10:52;11.10;99.90
6375;DHT22;35400;45.472;-122.822;2023-03-19T17:13:21;11.10;99.90
6375;DHT22;35400;45.472;-122.822;2023-03-19T17:15:50;11.10;99.90
6375;DHT22;35400;45.472;-122.822;2023-03-19T17:18:22;11.10;99.90
6375;DHT22;35400;45.472;-122.822;2023-03-19T17:21:03;11.20;99.90
6375;DHT22;35400;45.472;-122.822;2023-03-19T17:23:32;11.20;99.90
6375;DHT22;35400;45.472;-122.822;2023-03-19T17:26:00;11.20;99.90